createdAt,value
2023-02-26T00:00:18.472Z,999.12
2023-02-26T00:01:18.449Z,999.10
2023-02-26T00:02:18.479Z,999.04
2023-02-26T00:03:18.490Z,999.03
2023-02-26T00:04:18.423Z,999.05
2023-02-26T00:05:18.401Z,999.08
2023-02-26T00:06:18.390Z,999.11
2023-02-26T00:07:18.390Z,999.12
2023-02-26T00:08:18.360Z,999.08
2023-02-26T00:09:18.351Z,999.09
2023-02-26T00:10:18.334Z,999.09
2023-02-26T00:11:18.329Z,999.09
2023-02-26T00:12:18.346Z,999.07
2023-02-26T00:13:18.301Z,998.98
2023-02-26T00:14:18.288Z,999.09
2023-02-26T00:15:18.293Z,999.05
2023-02-26T00:16:18.336Z,999.04
2023-02-26T00:17:18.448Z,999.04
2023-02-26T00:18:18.245Z,998.99
2023-02-26T00:19:18.231Z,998.98
2023-02-26T00:20:18.212Z,998.97
2023-02-26T00:21:18.202Z,998.97
2023-02-26T00:22:18.202Z,998.97
2023-02-26T00:23:18.176Z,998.99
2023-02-26T00:24:18.176Z,999.02
2023-02-26T00:25:18.149Z,999.00
2023-02-26T00:26:18.142Z,999.03
2023-02-26T00:27:18.144Z,999.08
2023-02-26T00:28:18.139Z,999.04
2023-02-26T00:29:18.106Z,999.09
2023-02-26T00:30:18.103Z,999.12
2023-02-26T00:31:18.235Z,999.13
2023-02-26T00:32:18.368Z,999.15
2023-02-26T00:33:18.050Z,999.11
2023-02-26T00:34:18.044Z,999.12
2023-02-26T00:35:18.019Z,999.11
2023-02-26T00:36:18.014Z,999.12
2023-02-26T00:37:18.027Z,999.12
2023-02-26T00:38:17.997Z,999.12
2023-02-26T00:39:17.976Z,999.17
2023-02-26T00:40:17.963Z,999.19
2023-02-26T00:41:17.971Z,999.14
2023-02-26T00:42:17.944Z,999.19
2023-02-26T00:43:17.942Z,999.17
2023-02-26T00:44:17.936Z,999.18
2023-02-26T00:45:17.921Z,999.22
2023-02-26T00:46:17.912Z,999.18
2023-02-26T00:47:17.876Z,999.20
2023-02-26T00:48:17.877Z,999.13
2023-02-26T00:49:17.876Z,999.13
2023-02-26T00:50:17.842Z,999.16
2023-02-26T00:51:17.830Z,999.13
2023-02-26T00:52:17.817Z,999.18
2023-02-26T00:53:17.814Z,999.18
2023-02-26T00:54:17.793Z,999.24
2023-02-26T00:55:17.772Z,999.24
2023-02-26T00:56:17.762Z,999.20
2023-02-26T00:57:17.753Z,999.25
2023-02-26T00:58:17.757Z,999.27
2023-02-26T00:59:17.725Z,999.24
2023-02-26T01:00:17.735Z,999.21
2023-02-26T01:01:17.713Z,999.19
2023-02-26T01:02:17.685Z,999.18
2023-02-26T01:03:17.693Z,999.22
2023-02-26T01:04:17.673Z,999.30
2023-02-26T01:05:17.656Z,999.27
2023-02-26T01:06:17.637Z,999.26
2023-02-26T01:07:17.632Z,999.29
2023-02-26T01:08:17.622Z,999.30
2023-02-26T01:09:17.596Z,999.23
2023-02-26T01:10:17.584Z,999.29
2023-02-26T01:11:17.574Z,999.28
2023-02-26T01:12:17.557Z,999.24
2023-02-26T01:13:17.564Z,999.27
2023-02-26T01:14:17.537Z,999.26
2023-02-26T01:15:17.523Z,999.32
2023-02-26T01:16:17.577Z,999.27
2023-02-26T01:17:17.502Z,999.27
2023-02-26T01:18:17.530Z,999.27
2023-02-26T01:19:17.478Z,999.24
2023-02-26T01:20:17.465Z,999.36
2023-02-26T01:21:17.458Z,999.40
2023-02-26T01:22:17.438Z,999.38
2023-02-26T01:23:17.442Z,999.41
2023-02-26T01:24:17.415Z,999.36
2023-02-26T01:25:17.399Z,999.35
2023-02-26T01:26:17.388Z,999.39
2023-02-26T01:27:17.372Z,999.39
2023-02-26T01:28:17.376Z,999.43
2023-02-26T01:29:17.352Z,999.37
2023-02-26T01:30:17.339Z,999.45
2023-02-26T01:31:17.449Z,999.41
2023-02-26T01:32:17.493Z,999.44
2023-02-26T01:33:17.320Z,999.42
2023-02-26T01:34:17.292Z,999.47
2023-02-26T01:35:17.273Z,999.49
2023-02-26T01:36:17.263Z,999.49
2023-02-26T01:37:17.246Z,999.50
2023-02-26T01:38:17.262Z,999.48
2023-02-26T01:39:17.221Z,999.52
2023-02-26T01:40:17.225Z,999.49
2023-02-26T01:41:17.197Z,999.50
2023-02-26T01:42:17.192Z,999.49
2023-02-26T01:43:17.212Z,999.66
2023-02-26T01:44:17.170Z,999.63
2023-02-26T01:45:17.148Z,999.52
2023-02-26T01:46:17.163Z,999.61
2023-02-26T01:47:17.126Z,999.60
2023-02-26T01:48:17.168Z,999.55
2023-02-26T01:49:17.111Z,999.64
2023-02-26T01:50:17.094Z,999.64
2023-02-26T01:51:17.075Z,999.59
2023-02-26T01:52:17.065Z,999.61
2023-02-26T01:53:17.052Z,999.56
2023-02-26T01:54:17.069Z,999.59
2023-02-26T01:55:17.033Z,999.62
2023-02-26T01:56:17.022Z,999.66
2023-02-26T01:57:16.999Z,999.59
2023-02-26T01:58:16.992Z,999.68
2023-02-26T01:59:16.992Z,999.60
2023-02-26T02:00:16.969Z,999.68
2023-02-26T02:01:16.949Z,999.69
2023-02-26T02:02:16.988Z,999.71
2023-02-26T02:03:17.044Z,999.66
2023-02-26T02:04:16.950Z,999.69
2023-02-26T02:05:16.905Z,999.61
2023-02-26T02:06:16.893Z,999.68
2023-02-26T02:07:16.882Z,999.68
2023-02-26T02:08:16.865Z,999.68
2023-02-26T02:09:16.871Z,999.73
2023-02-26T02:10:16.848Z,999.71
2023-02-26T02:11:16.827Z,999.72
2023-02-26T02:12:16.813Z,999.72
2023-02-26T02:13:16.803Z,999.72
2023-02-26T02:14:16.806Z,999.68
2023-02-26T02:15:16.779Z,999.71
2023-02-26T02:16:16.838Z,999.70
2023-02-26T02:17:16.759Z,999.69
2023-02-26T02:18:16.737Z,999.65
2023-02-26T02:19:16.738Z,999.70
2023-02-26T02:20:16.734Z,999.68
2023-02-26T02:21:16.698Z,999.72
2023-02-26T02:22:16.685Z,999.66
2023-02-26T02:23:16.677Z,999.69
2023-02-26T02:24:16.673Z,999.69
2023-02-26T02:25:16.656Z,999.70
2023-02-26T02:26:16.644Z,999.70
2023-02-26T02:27:16.620Z,999.71
2023-02-26T02:28:16.616Z,999.72
2023-02-26T02:29:16.608Z,999.71
2023-02-26T02:30:16.589Z,999.75
2023-02-26T02:31:16.630Z,999.67
2023-02-26T02:32:16.652Z,999.71
2023-02-26T02:33:16.545Z,999.76
2023-02-26T02:34:16.547Z,999.75
2023-02-26T02:35:16.525Z,999.81
2023-02-26T02:36:16.529Z,999.79
2023-02-26T02:37:16.500Z,999.77
2023-02-26T02:38:16.487Z,999.77
2023-02-26T02:39:16.489Z,999.73
2023-02-26T02:40:16.467Z,999.81
2023-02-26T02:41:16.448Z,999.80
2023-02-26T02:42:16.439Z,999.80
2023-02-26T02:43:16.417Z,999.85
2023-02-26T02:44:16.427Z,999.76
2023-02-26T02:45:16.398Z,999.84
2023-02-26T02:46:16.592Z,999.78
2023-02-26T02:47:16.372Z,999.84
2023-02-26T02:48:16.366Z,999.83
2023-02-26T02:49:16.363Z,999.84
2023-02-26T02:50:16.368Z,999.86
2023-02-26T02:51:16.320Z,999.83
2023-02-26T02:52:16.334Z,999.88
2023-02-26T02:53:16.303Z,999.87
2023-02-26T02:54:16.308Z,999.87
2023-02-26T02:55:16.285Z,999.86
2023-02-26T02:56:16.262Z,999.90
2023-02-26T02:57:16.245Z,999.91
2023-02-26T02:58:16.235Z,999.88
2023-02-26T02:59:16.247Z,999.91
2023-02-26T03:00:16.213Z,999.90
2023-02-26T03:01:16.235Z,999.89
2023-02-26T03:02:16.362Z,999.89
2023-02-26T03:03:16.176Z,999.96
2023-02-26T03:04:16.181Z,999.93
2023-02-26T03:05:16.160Z,999.94
2023-02-26T03:06:16.142Z,999.92
2023-02-26T03:07:16.125Z,999.94
2023-02-26T03:08:16.136Z,999.96
2023-02-26T03:09:16.117Z,999.97
2023-02-26T03:10:16.133Z,999.96
2023-02-26T03:11:16.086Z,999.94
2023-02-26T03:12:16.083Z,999.97
2023-02-26T03:13:16.051Z,999.97
2023-02-26T03:14:16.054Z,1000.02
2023-02-26T03:15:16.030Z,1000.04
2023-02-26T03:16:16.068Z,1000.08
2023-02-26T03:17:15.998Z,1000.03
2023-02-26T03:18:15.993Z,1000.06
2023-02-26T03:19:15.993Z,1000.05
2023-02-26T03:20:15.966Z,1000.06
2023-02-26T03:21:15.956Z,1000.11
2023-02-26T03:22:15.950Z,1000.09
2023-02-26T03:23:15.932Z,1000.15
2023-02-26T03:24:15.952Z,1000.11
2023-02-26T03:25:15.906Z,1000.15
2023-02-26T03:26:15.892Z,1000.16
2023-02-26T03:27:15.878Z,1000.19
2023-02-26T03:28:15.878Z,1000.21
2023-02-26T03:29:15.893Z,1000.23
2023-02-26T03:30:15.844Z,1000.26
2023-02-26T03:31:15.946Z,1000.22
2023-02-26T03:32:15.923Z,1000.25
2023-02-26T03:33:15.824Z,1000.24
2023-02-26T03:34:15.802Z,1000.29
2023-02-26T03:35:15.804Z,1000.28
2023-02-26T03:36:15.772Z,1000.31
2023-02-26T03:37:15.782Z,1000.33
2023-02-26T03:38:15.753Z,1000.35
2023-02-26T03:39:15.736Z,1000.38
2023-02-26T03:40:15.763Z,1000.37
2023-02-26T03:41:15.711Z,1000.35
2023-02-26T03:42:15.700Z,1000.36
2023-02-26T03:43:15.685Z,1000.38
2023-02-26T03:44:15.674Z,1000.43
2023-02-26T03:45:15.679Z,1000.37
2023-02-26T03:46:15.715Z,1000.37
2023-02-26T03:47:15.649Z,1000.40
2023-02-26T03:48:15.634Z,1000.42
2023-02-26T03:49:15.651Z,1000.44
2023-02-26T03:50:15.616Z,1000.49
2023-02-26T03:51:15.587Z,1000.45
2023-02-26T03:52:15.577Z,1000.45
2023-02-26T03:53:15.560Z,1000.46
2023-02-26T03:54:15.548Z,1000.48
2023-02-26T03:55:15.581Z,1000.55
2023-02-26T03:56:15.543Z,1000.52
2023-02-26T03:57:15.517Z,1000.54
2023-02-26T03:58:15.502Z,1000.51
2023-02-26T03:59:15.490Z,1000.56
2023-02-26T04:00:15.491Z,1000.53
2023-02-26T04:01:15.460Z,1000.55
2023-02-26T04:02:15.471Z,1000.62
2023-02-26T04:03:15.454Z,1000.58
2023-02-26T04:04:15.551Z,1000.58
2023-02-26T04:05:15.428Z,1000.63
2023-02-26T04:06:15.409Z,1000.65
2023-02-26T04:07:15.390Z,1000.72
2023-02-26T04:08:15.372Z,1000.72
2023-02-26T04:09:16.256Z,1000.71
2023-02-26T04:10:15.363Z,1000.75
2023-02-26T04:11:15.348Z,1000.77
2023-02-26T04:12:15.459Z,1000.73
2023-02-26T04:13:15.334Z,1000.76
2023-02-26T04:14:15.302Z,1000.76
2023-02-26T04:15:15.307Z,1000.77
2023-02-26T04:16:15.316Z,1000.75
2023-02-26T04:17:15.264Z,1000.77
2023-02-26T04:18:15.252Z,1000.79
2023-02-26T04:19:15.247Z,1000.81
2023-02-26T04:20:15.243Z,1000.82
2023-02-26T04:21:15.230Z,1000.80
2023-02-26T04:22:15.201Z,1000.84
2023-02-26T04:23:15.188Z,1000.86
2023-02-26T04:24:15.176Z,1000.83
2023-02-26T04:25:15.180Z,1000.85
2023-02-26T04:26:15.153Z,1000.82
2023-02-26T04:27:15.142Z,1000.85
2023-02-26T04:28:15.152Z,1000.83
2023-02-26T04:29:15.116Z,1000.85
2023-02-26T04:30:15.119Z,1000.87
2023-02-26T04:31:15.208Z,1000.89
2023-02-26T04:32:15.306Z,1000.86
2023-02-26T04:33:15.068Z,1000.87
2023-02-26T04:34:15.047Z,1000.87
2023-02-26T04:35:15.062Z,1000.90
2023-02-26T04:36:15.020Z,1000.87
2023-02-26T04:37:15.008Z,1000.96
2023-02-26T04:38:14.998Z,1000.84
2023-02-26T04:39:14.990Z,1000.92
2023-02-26T04:40:15.013Z,1000.93
2023-02-26T04:41:14.978Z,1000.96
2023-02-26T04:42:14.948Z,1001.01
2023-02-26T04:43:14.939Z,1001.03
2023-02-26T04:44:14.950Z,1001.00
2023-02-26T04:45:14.914Z,1001.03
2023-02-26T04:46:15.003Z,1000.99
2023-02-26T04:47:14.899Z,1001.05
2023-02-26T04:48:14.871Z,1000.97
2023-02-26T04:49:14.857Z,1001.04
2023-02-26T04:50:14.856Z,1001.04
2023-02-26T04:51:14.851Z,1001.03
2023-02-26T04:52:14.890Z,1001.05
2023-02-26T04:53:14.813Z,1001.00
2023-02-26T04:54:14.798Z,1001.01
2023-02-26T04:55:14.795Z,1000.97
2023-02-26T04:56:14.794Z,1000.99
2023-02-26T04:57:14.761Z,1000.98
2023-02-26T04:58:14.746Z,1000.99
2023-02-26T04:59:14.742Z,1001.01
2023-02-26T05:00:14.740Z,1000.99
2023-02-26T05:01:14.856Z,1001.02
2023-02-26T05:02:14.699Z,1001.00
2023-02-26T05:03:14.686Z,1001.02
2023-02-26T05:04:14.730Z,1001.01
2023-02-26T05:05:14.664Z,1001.03
2023-02-26T05:06:14.676Z,1001.02
2023-02-26T05:07:14.636Z,1001.06
2023-02-26T05:08:14.630Z,1001.10
2023-02-26T05:09:14.615Z,1001.10
2023-02-26T05:10:14.605Z,1001.06
2023-02-26T05:11:14.605Z,1001.08
2023-02-26T05:12:14.582Z,1001.12
2023-02-26T05:13:14.578Z,1001.07
2023-02-26T05:14:14.554Z,1001.11
2023-02-26T05:15:14.542Z,1001.14
2023-02-26T05:16:14.629Z,1001.08
2023-02-26T05:17:14.524Z,1001.16
2023-02-26T05:18:14.539Z,1001.18
2023-02-26T05:19:14.492Z,1001.17
2023-02-26T05:20:14.477Z,1001.20
2023-02-26T05:21:14.493Z,1001.26
2023-02-26T05:22:14.456Z,1001.30
2023-02-26T05:23:14.448Z,1001.27
2023-02-26T05:24:14.431Z,1001.31
2023-02-26T05:25:14.430Z,1001.34
2023-02-26T05:26:14.417Z,1001.29
2023-02-26T05:27:14.395Z,1001.34
2023-02-26T05:28:14.381Z,1001.30
2023-02-26T05:29:14.373Z,1001.40
2023-02-26T05:30:14.353Z,1001.38
2023-02-26T05:31:14.382Z,1001.40
2023-02-26T05:32:14.381Z,1001.32
2023-02-26T05:33:14.324Z,1001.38
2023-02-26T05:34:14.309Z,1001.34
2023-02-26T05:35:14.295Z,1001.36
2023-02-26T05:36:14.297Z,1001.38
2023-02-26T05:37:14.267Z,1001.42
2023-02-26T05:38:14.256Z,1001.35
2023-02-26T05:39:14.240Z,1001.41
2023-02-26T05:40:14.227Z,1001.40
2023-02-26T05:41:14.232Z,1001.35
2023-02-26T05:42:14.202Z,1001.45
2023-02-26T05:43:14.195Z,1001.47
2023-02-26T05:44:14.185Z,1001.47
2023-02-26T05:45:14.173Z,1001.46
2023-02-26T05:46:14.236Z,1001.47
2023-02-26T05:47:14.145Z,1001.52
2023-02-26T05:48:14.148Z,1001.49
2023-02-26T05:49:14.127Z,1001.46
2023-02-26T05:50:14.119Z,1001.49
2023-02-26T05:51:14.134Z,1001.49
2023-02-26T05:52:14.082Z,1001.49
2023-02-26T05:53:14.070Z,1001.46
2023-02-26T05:54:14.065Z,1001.51
2023-02-26T05:55:14.048Z,1001.52
2023-02-26T05:56:14.732Z,1001.55
2023-02-26T05:57:14.040Z,1001.52
2023-02-26T05:58:14.003Z,1001.53
2023-02-26T05:59:13.989Z,1001.53
2023-02-26T06:00:13.976Z,1001.64
2023-02-26T06:01:13.968Z,1001.65
2023-02-26T06:02:14.091Z,1001.70
2023-02-26T06:03:13.976Z,1001.70
2023-02-26T06:04:13.947Z,1001.73
2023-02-26T06:05:13.915Z,1001.73
2023-02-26T06:06:13.896Z,1001.72
2023-02-26T06:07:13.909Z,1001.76
2023-02-26T06:08:13.884Z,1001.75
2023-02-26T06:09:13.863Z,1001.83
2023-02-26T06:10:13.853Z,1001.87
2023-02-26T06:11:13.842Z,1001.86
2023-02-26T06:12:13.848Z,1001.90
2023-02-26T06:13:13.822Z,1001.98
2023-02-26T06:14:13.803Z,1001.98
2023-02-26T06:15:13.790Z,1002.05
2023-02-26T06:16:13.816Z,1002.04
2023-02-26T06:17:13.779Z,1002.08
2023-02-26T06:18:13.810Z,1002.06
2023-02-26T06:19:13.739Z,1002.13
2023-02-26T06:20:13.753Z,1002.12
2023-02-26T06:21:13.717Z,1002.12
2023-02-26T06:22:13.715Z,1002.10
2023-02-26T06:23:13.695Z,1002.15
2023-02-26T06:24:13.694Z,1002.22
2023-02-26T06:25:13.686Z,1002.21
2023-02-26T06:26:13.654Z,1002.19
2023-02-26T06:27:13.678Z,1002.18
2023-02-26T06:28:13.631Z,1002.15
2023-02-26T06:29:13.614Z,1002.18
2023-02-26T06:30:13.603Z,1002.18
2023-02-26T06:31:13.619Z,1002.18
2023-02-26T06:32:13.807Z,1002.20
2023-02-26T06:33:13.572Z,1002.18
2023-02-26T06:34:13.551Z,1002.20
2023-02-26T06:35:13.547Z,1002.21
2023-02-26T06:36:13.598Z,1002.27
2023-02-26T06:37:13.564Z,1002.20
2023-02-26T06:38:13.513Z,1002.27
2023-02-26T06:39:13.512Z,1002.25
2023-02-26T06:40:13.484Z,1002.33
2023-02-26T06:41:13.476Z,1002.33
2023-02-26T06:42:13.483Z,1002.43
2023-02-26T06:43:13.459Z,1002.41
2023-02-26T06:44:13.428Z,1002.45
2023-02-26T06:45:13.420Z,1002.51
2023-02-26T06:46:13.455Z,1002.49
2023-02-26T06:47:13.401Z,1002.55
2023-02-26T06:48:13.401Z,1002.58
2023-02-26T06:49:13.372Z,1002.58
2023-02-26T06:50:13.357Z,1002.66
2023-02-26T06:51:13.354Z,1002.68
2023-02-26T06:52:13.369Z,1002.62
2023-02-26T06:53:13.337Z,1002.63
2023-02-26T06:54:13.305Z,1002.65
2023-02-26T06:55:13.300Z,1002.69
2023-02-26T06:56:13.284Z,1002.70
2023-02-26T06:57:13.276Z,1002.71
2023-02-26T06:58:13.273Z,1002.73
2023-02-26T06:59:13.246Z,1002.76
2023-02-26T07:00:13.364Z,1002.71
2023-02-26T07:01:13.281Z,1002.79
2023-02-26T07:02:13.233Z,1002.85
2023-02-26T07:03:13.234Z,1002.85
2023-02-26T07:04:13.188Z,1002.82
2023-02-26T07:05:13.176Z,1002.85
2023-02-26T07:06:26.432Z,1002.88
2023-02-26T07:07:13.154Z,1002.92
2023-02-26T07:08:13.168Z,1002.90
2023-02-26T07:09:13.150Z,1002.89
2023-02-26T07:10:13.107Z,1002.90
2023-02-26T07:11:13.103Z,1002.94
2023-02-26T07:12:13.109Z,1002.95
2023-02-26T07:13:13.085Z,1002.93
2023-02-26T07:14:13.055Z,1002.99
2023-02-26T07:15:13.043Z,1003.12
2023-02-26T07:16:13.037Z,1003.11
2023-02-26T07:17:13.025Z,1003.07
2023-02-26T07:18:13.014Z,1003.01
2023-02-26T07:19:12.991Z,1003.06
2023-02-26T07:20:13.011Z,1003.05
2023-02-26T07:21:12.969Z,1003.11
2023-02-26T07:22:12.949Z,1002.99
2023-02-26T07:23:12.958Z,1003.10
2023-02-26T07:24:12.979Z,1002.91
2023-02-26T07:25:12.924Z,1002.94
2023-02-26T07:26:12.912Z,1003.04
2023-02-26T07:27:12.885Z,1003.03
2023-02-26T07:28:12.942Z,1003.00
2023-02-26T07:29:12.867Z,1003.00
2023-02-26T07:30:12.860Z,1003.05
2023-02-26T07:31:13.000Z,1003.10
2023-02-26T07:32:13.007Z,1003.07
2023-02-26T07:33:13.815Z,1003.14
2023-02-26T07:34:12.796Z,1003.16
2023-02-26T07:35:12.795Z,1003.18
2023-02-26T07:36:12.785Z,1003.14
2023-02-26T07:37:12.756Z,1003.18
2023-02-26T07:38:12.763Z,1003.19
2023-02-26T07:39:12.731Z,1003.21
2023-02-26T07:40:12.765Z,1003.21
2023-02-26T07:41:12.702Z,1003.26
2023-02-26T07:42:12.750Z,1003.27
2023-02-26T07:43:12.694Z,1003.27
2023-02-26T07:44:12.665Z,1003.35
2023-02-26T07:45:12.655Z,1003.43
2023-02-26T07:46:12.687Z,1003.41
2023-02-26T07:47:12.625Z,1003.52
2023-02-26T07:48:12.618Z,1003.45
2023-02-26T07:49:12.612Z,1003.44
2023-02-26T07:50:12.592Z,1003.47
2023-02-26T07:51:12.589Z,1003.50
2023-02-26T07:52:12.563Z,1003.25
2023-02-26T07:53:12.553Z,1003.44
2023-02-26T07:54:12.549Z,1003.52
2023-02-26T07:55:12.597Z,1003.50
2023-02-26T07:56:12.525Z,1003.35
2023-02-26T07:57:12.500Z,1003.38
2023-02-26T07:58:12.478Z,1003.28
2023-02-26T07:59:12.487Z,1003.28
2023-02-26T08:00:12.514Z,1003.22
2023-02-26T08:01:12.459Z,1003.32
2023-02-26T08:02:12.427Z,1003.18
2023-02-26T08:03:12.411Z,1003.48
2023-02-26T08:04:12.436Z,1003.56
2023-02-26T08:05:12.404Z,1003.27
2023-02-26T08:06:12.376Z,1003.33
2023-02-26T08:07:12.361Z,1003.28
2023-02-26T08:08:12.345Z,1003.35
2023-02-26T08:09:12.354Z,1003.40
2023-02-26T08:10:12.352Z,1003.33
2023-02-26T08:11:12.326Z,1003.57
2023-02-26T08:12:12.317Z,1003.37
2023-02-26T08:13:12.291Z,1003.70
2023-02-26T08:14:12.287Z,1003.46
2023-02-26T08:15:12.339Z,1003.51
2023-02-26T08:16:12.314Z,1003.51
2023-02-26T08:17:12.235Z,1003.58
2023-02-26T08:18:12.223Z,1003.57
2023-02-26T08:19:12.235Z,1003.81
2023-02-26T08:20:12.223Z,1003.75
2023-02-26T08:21:12.189Z,1003.63
2023-02-26T08:22:12.162Z,1003.66
2023-02-26T08:23:12.148Z,1003.58
2023-02-26T08:24:12.155Z,1003.70
2023-02-26T08:25:12.271Z,1003.72
2023-02-26T08:26:12.117Z,1003.73
2023-02-26T08:27:13.614Z,1003.74
2023-02-26T08:28:12.108Z,1003.75
2023-02-26T08:29:12.088Z,1003.77
2023-02-26T08:30:12.224Z,1003.80
2023-02-26T08:31:12.111Z,1003.68
2023-02-26T08:32:12.140Z,1003.79
2023-02-26T08:33:12.033Z,1003.85
2023-02-26T08:34:12.026Z,1003.90
2023-02-26T08:35:12.141Z,1003.94
2023-02-26T08:36:11.993Z,1003.82
2023-02-26T08:37:11.969Z,1003.86
2023-02-26T08:38:11.968Z,1003.78
2023-02-26T08:39:11.961Z,1003.99
2023-02-26T08:40:14.788Z,1003.86
2023-02-26T08:41:11.909Z,1003.88
2023-02-26T08:42:11.912Z,1003.98
2023-02-26T08:43:11.896Z,1003.82
2023-02-26T08:44:11.963Z,1003.87
2023-02-26T08:45:11.999Z,1003.90
2023-02-26T08:46:11.875Z,1003.83
2023-02-26T08:47:13.606Z,1003.89
2023-02-26T08:48:11.845Z,1004.00
2023-02-26T08:49:11.820Z,1004.08
2023-02-26T08:50:11.973Z,1004.09
2023-02-26T08:51:11.791Z,1004.11
2023-02-26T08:52:11.774Z,1004.08
2023-02-26T08:53:11.760Z,1004.09
2023-02-26T08:54:11.752Z,1004.12
2023-02-26T08:55:11.744Z,1004.11
2023-02-26T08:56:11.720Z,1004.17
2023-02-26T08:57:11.720Z,1004.22
2023-02-26T08:58:11.708Z,1004.15
2023-02-26T08:59:13.347Z,1004.25
2023-02-26T09:00:23.036Z,1004.24
2023-02-26T09:01:11.654Z,1004.24
2023-02-26T09:02:11.744Z,1004.16
2023-02-26T09:03:11.713Z,1004.16
2023-02-26T09:04:11.617Z,1004.20
2023-02-26T09:05:11.627Z,1004.24
2023-02-26T09:06:11.588Z,1004.26
2023-02-26T09:07:11.575Z,1004.24
2023-02-26T09:08:11.582Z,1004.24
2023-02-26T09:09:11.547Z,1004.30
2023-02-26T09:10:11.565Z,1004.22
2023-02-26T09:11:11.521Z,1004.38
2023-02-26T09:12:11.510Z,1004.48
2023-02-26T09:13:11.496Z,1004.34
2023-02-26T09:14:11.484Z,1004.30
2023-02-26T09:15:11.501Z,1004.37
2023-02-26T09:16:11.501Z,1004.31
2023-02-26T09:17:11.443Z,1004.35
2023-02-26T09:18:11.449Z,1004.34
2023-02-26T09:19:11.520Z,1004.39
2023-02-26T09:20:11.430Z,1004.48
2023-02-26T09:21:11.462Z,1004.97
2023-02-26T09:22:11.380Z,1004.58
2023-02-26T09:23:11.364Z,1004.49
2023-02-26T09:24:11.352Z,1004.52
2023-02-26T09:25:11.364Z,1004.49
2023-02-26T09:26:11.322Z,1004.44
2023-02-26T09:27:11.307Z,1004.29
2023-02-26T09:28:11.350Z,1004.36
2023-02-26T09:29:11.285Z,1004.51
2023-02-26T09:30:11.442Z,1004.35
2023-02-26T09:31:11.326Z,1004.67
2023-02-26T09:32:11.343Z,1004.41
2023-02-26T09:33:11.234Z,1004.64
2023-02-26T09:34:11.699Z,1004.52
2023-02-26T09:35:11.225Z,1004.39
2023-02-26T09:36:11.203Z,1004.54
2023-02-26T09:37:11.179Z,1004.61
2023-02-26T09:38:11.178Z,1004.51
2023-02-26T09:39:11.159Z,1004.48
2023-02-26T09:40:11.156Z,1004.82
2023-02-26T09:41:11.128Z,1005.06
2023-02-26T09:42:11.124Z,1004.54
2023-02-26T09:43:11.099Z,1004.81
2023-02-26T09:44:11.091Z,1004.82
2023-02-26T09:45:11.085Z,1004.67
2023-02-26T09:46:11.114Z,1005.16
2023-02-26T09:47:11.050Z,1004.69
2023-02-26T09:48:11.065Z,1004.65
2023-02-26T09:49:11.025Z,1005.10
2023-02-26T09:50:11.028Z,1004.58
2023-02-26T09:51:11.028Z,1004.65
2023-02-26T09:52:10.991Z,1005.09
2023-02-26T09:53:10.965Z,1005.23
2023-02-26T09:54:10.986Z,1005.24
2023-02-26T09:55:10.959Z,1004.83
2023-02-26T09:56:10.933Z,1004.96
2023-02-26T09:57:10.919Z,1004.74
2023-02-26T09:58:10.902Z,1005.31
2023-02-26T09:59:10.909Z,1004.71
2023-02-26T10:00:10.881Z,1005.22
2023-02-26T10:01:10.880Z,1005.32
2023-02-26T10:02:10.871Z,1005.30
2023-02-26T10:03:10.843Z,1005.32
2023-02-26T10:04:10.920Z,1004.79
2023-02-26T10:05:10.815Z,1005.21
2023-02-26T10:06:10.815Z,1005.25
2023-02-26T10:07:10.783Z,1005.24
2023-02-26T10:08:10.777Z,1005.31
2023-02-26T10:09:10.765Z,1005.42
2023-02-26T10:10:10.748Z,1004.82
2023-02-26T10:11:10.746Z,1005.13
2023-02-26T10:12:10.720Z,1005.38
2023-02-26T10:13:10.710Z,1005.47
2023-02-26T10:14:10.696Z,1005.40
2023-02-26T10:15:10.684Z,1005.42
2023-02-26T10:16:12.516Z,1005.46
2023-02-26T10:17:10.665Z,1005.38
2023-02-26T10:18:10.644Z,1005.37
2023-02-26T10:19:10.627Z,1005.45
2023-02-26T10:20:10.645Z,1005.44
2023-02-26T10:21:10.637Z,1005.54
2023-02-26T10:22:10.590Z,1005.46
2023-02-26T10:23:10.573Z,1005.47
2023-02-26T10:24:10.561Z,1005.50
2023-02-26T10:25:10.548Z,1005.51
2023-02-26T10:26:10.550Z,1005.46
2023-02-26T10:27:10.528Z,1005.50
2023-02-26T10:28:10.515Z,1005.56
2023-02-26T10:29:10.495Z,1005.63
2023-02-26T10:30:10.486Z,1005.57
2023-02-26T10:31:10.542Z,1005.64
2023-02-26T10:32:10.550Z,1005.65
2023-02-26T10:33:10.439Z,1005.68
2023-02-26T10:34:10.429Z,1005.58
2023-02-26T10:35:10.421Z,1005.69
2023-02-26T10:36:10.440Z,1005.72
2023-02-26T10:37:10.389Z,1005.78
2023-02-26T10:38:10.371Z,1005.71
2023-02-26T10:39:10.358Z,1005.73
2023-02-26T10:40:10.343Z,1005.18
2023-02-26T10:41:10.348Z,1005.19
2023-02-26T10:42:10.327Z,1005.26
2023-02-26T10:43:10.314Z,1005.75
2023-02-26T10:44:10.297Z,1005.82
2023-02-26T10:45:10.279Z,1005.51
2023-02-26T10:46:10.613Z,1005.22
2023-02-26T10:47:10.262Z,1005.46
2023-02-26T10:48:10.257Z,1005.66
2023-02-26T10:49:10.234Z,1005.67
2023-02-26T10:50:10.218Z,1005.74
2023-02-26T10:51:10.230Z,1005.84
2023-02-26T10:52:10.214Z,1005.48
2023-02-26T10:53:10.178Z,1005.40
2023-02-26T10:54:10.175Z,1005.29
2023-02-26T10:55:10.148Z,1005.25
2023-02-26T10:56:10.155Z,1005.24
2023-02-26T10:57:10.128Z,1005.31
2023-02-26T10:58:10.114Z,1005.20
2023-02-26T10:59:10.096Z,1005.31
2023-02-26T11:00:10.083Z,1005.26
2023-02-26T11:01:10.170Z,1005.14
2023-02-26T11:02:10.115Z,1005.24
2023-02-26T11:03:10.046Z,1005.29
2023-02-26T11:04:10.032Z,1005.16
2023-02-26T11:05:10.022Z,1005.24
2023-02-26T11:06:10.032Z,1005.24
2023-02-26T11:07:09.996Z,1005.20
2023-02-26T11:08:10.025Z,1005.28
2023-02-26T11:09:09.975Z,1005.22
2023-02-26T11:10:09.960Z,1005.31
2023-02-26T11:11:09.963Z,1005.28
2023-02-26T11:12:09.946Z,1005.26
2023-02-26T11:13:09.915Z,1005.27
2023-02-26T11:14:09.903Z,1005.29
2023-02-26T11:15:09.898Z,1005.31
2023-02-26T11:16:09.948Z,1005.30
2023-02-26T11:17:09.867Z,1005.30
2023-02-26T11:18:09.850Z,1005.36
2023-02-26T11:19:09.834Z,1005.26
2023-02-26T11:20:09.831Z,1005.28
2023-02-26T11:21:09.811Z,1005.24
2023-02-26T11:22:09.877Z,1005.40
2023-02-26T11:23:09.782Z,1005.31
2023-02-26T11:24:09.808Z,1005.33
2023-02-26T11:25:09.764Z,1005.31
2023-02-26T11:26:09.751Z,1005.34
2023-02-26T11:27:09.743Z,1005.33
2023-02-26T11:28:09.719Z,1005.37
2023-02-26T11:29:09.706Z,1005.33
2023-02-26T11:30:09.694Z,1005.34
2023-02-26T11:31:09.769Z,1005.36
2023-02-26T11:32:09.852Z,1005.39
2023-02-26T11:33:09.653Z,1005.36
2023-02-26T11:34:09.680Z,1005.40
2023-02-26T11:35:09.651Z,1005.34
2023-02-26T11:36:09.617Z,1005.40
2023-02-26T11:37:09.625Z,1005.39
2023-02-26T11:38:09.608Z,1005.42
2023-02-26T11:39:09.585Z,1005.37
2023-02-26T11:40:09.579Z,1005.45
2023-02-26T11:41:09.550Z,1005.43
2023-02-26T11:42:09.553Z,1005.50
2023-02-26T11:43:09.524Z,1005.44
2023-02-26T11:44:09.541Z,1005.71
2023-02-26T11:45:09.501Z,1005.47
2023-02-26T11:46:09.672Z,1005.42
2023-02-26T11:47:09.487Z,1005.38
2023-02-26T11:48:09.454Z,1005.38
2023-02-26T11:49:09.446Z,1005.35
2023-02-26T11:50:09.451Z,1005.32
2023-02-26T11:51:09.413Z,1005.37
2023-02-26T11:52:09.417Z,1005.34
2023-02-26T11:53:09.389Z,1005.46
2023-02-26T11:54:09.377Z,1005.29
2023-02-26T11:55:09.360Z,1005.27
2023-02-26T11:56:09.366Z,1005.26
2023-02-26T11:57:09.346Z,1005.40
2023-02-26T11:58:09.318Z,1005.33
2023-02-26T11:59:09.302Z,1005.31
2023-02-26T12:00:09.294Z,1005.34
2023-02-26T12:01:09.271Z,1005.40
2023-02-26T12:02:09.275Z,1005.24
2023-02-26T12:03:09.248Z,1005.34
2023-02-26T12:04:09.236Z,1005.32
2023-02-26T12:05:09.218Z,1005.30
2023-02-26T12:06:09.206Z,1005.32
2023-02-26T12:07:09.211Z,1005.33
2023-02-26T12:08:09.208Z,1005.45
2023-02-26T12:09:09.173Z,1005.38
2023-02-26T12:10:09.173Z,1005.47
2023-02-26T12:11:09.147Z,1005.34